Time;durP1;ratioP1;P1;durP2;ratioP2;P2;SDS_P1;SDS_P2;PMS_P1;PMS_P2;Temp;Humidity;BMP_temperature;BMP_pressure;BME280_temperature;BME280_humidity;BME280_pressure;Samples;Min_cycle;Max_cycle;Signal;HPM_P1;HPM_P2
2021/01/25 00:00:23;;;;;;;12.30;5.40;;;-1.70;99.90;;;;;;5079933;28;20095;-49
2021/01/25 00:02:49;;;;;;;9.55;5.50;;;-1.80;99.90;;;;;;5084840;28;20052;-50
2021/01/25 00:05:16;;;;;;;13.43;4.22;;;-2.00;99.90;;;;;;5071911;28;20581;-50
2021/01/25 00:07:43;;;;;;;10.75;3.80;;;-2.00;99.90;;;;;;5079333;28;20463;-49
2021/01/25 00:10:10;;;;;;;9.13;4.82;;;-2.20;99.90;;;;;;5074983;28;20048;-49
2021/01/25 00:12:37;;;;;;;8.10;3.50;;;-2.20;99.90;;;;;;5088763;28;20052;-49
2021/01/25 00:15:05;;;;;;;8.15;3.70;;;-2.10;99.90;;;;;;5083453;28;20430;-49
2021/01/25 00:17:32;;;;;;;15.27;3.33;;;-2.10;99.90;;;;;;5073727;28;20489;-50
2021/01/25 00:19:58;;;;;;;3.45;1.90;;;-2.10;99.90;;;;;;5082200;28;20063;-50
2021/01/25 00:22:25;;;;;;;8.13;3.40;;;-2.00;99.90;;;;;;5087754;28;20048;-49
2021/01/25 00:24:52;;;;;;;7.72;3.15;;;-1.90;99.90;;;;;;5082338;28;20049;-49
2021/01/25 00:27:18;;;;;;;6.68;3.35;;;-2.00;99.90;;;;;;5081544;28;20047;-49
2021/01/25 00:29:45;;;;;;;7.30;3.20;;;-2.10;99.90;;;;;;5081541;28;20052;-49
2021/01/25 00:32:12;;;;;;;9.30;4.15;;;-2.10;99.90;;;;;;5083006;28;20048;-50
2021/01/25 00:34:39;;;;;;;5.70;1.80;;;-2.10;99.90;;;;;;5094121;28;20375;-49
2021/01/25 00:37:06;;;;;;;4.38;2.05;;;-2.00;99.90;;;;;;5087594;28;20059;-49
2021/01/25 00:39:32;;;;;;;3.42;1.88;;;-2.00;99.90;;;;;;5091329;28;20043;-49
2021/01/25 00:41:59;;;;;;;4.22;1.60;;;-2.00;99.90;;;;;;5088367;28;20055;-50
2021/01/25 00:44:25;;;;;;;6.05;3.08;;;-2.00;99.90;;;;;;5089953;28;20057;-49
2021/01/25 00:46:52;;;;;;;10.60;5.03;;;-2.10;99.90;;;;;;5092623;28;20063;-49
2021/01/25 00:49:18;;;;;;;13.25;4.13;;;-2.00;99.90;;;;;;5086081;28;20048;-49
2021/01/25 00:51:45;;;;;;;9.48;3.05;;;-2.00;99.90;;;;;;5092229;28;20121;-49
2021/01/25 00:54:12;;;;;;;5.38;1.85;;;-2.00;99.90;;;;;;5087188;28;20250;-50
2021/01/25 00:56:39;;;;;;;6.63;2.50;;;-2.00;99.90;;;;;;5075481;28;20054;-53
2021/01/25 00:59:05;;;;;;;5.25;1.63;;;-1.90;99.90;;;;;;5085671;28;20480;-49
2021/01/25 01:01:32;;;;;;;4.00;1.80;;;-1.90;99.90;;;;;;5080098;28;20060;-49
2021/01/25 01:03:59;;;;;;;3.70;1.52;;;-1.90;99.90;;;;;;5088472;28;20132;-49
2021/01/25 01:06:25;;;;;;;3.10;1.52;;;-1.80;99.90;;;;;;5080494;28;20056;-49
2021/01/25 01:08:51;;;;;;;2.10;1.23;;;-1.80;99.90;;;;;;5088306;28;20431;-49
2021/01/25 01:11:18;;;;;;;2.63;1.08;;;-1.80;99.90;;;;;;5087660;28;20047;-50
2021/01/25 01:13:44;;;;;;;2.47;1.00;;;-1.70;99.90;;;;;;5089937;28;20048;-49
2021/01/25 01:16:11;;;;;;;6.25;1.77;;;-1.70;99.90;;;;;;5087763;28;20407;-50
2021/01/25 01:18:37;;;;;;;11.07;3.92;;;-1.70;99.90;;;;;;5091072;28;20668;-49
2021/01/25 01:21:05;;;;;;;9.70;2.78;;;-1.60;99.90;;;;;;5082782;28;20110;-50
2021/01/25 01:23:31;;;;;;;6.47;2.80;;;-1.70;99.90;;;;;;5080010;28;20048;-50
2021/01/25 01:25:58;;;;;;;5.88;1.70;;;-1.70;99.90;;;;;;5092921;28;20059;-51
2021/01/25 01:28:24;;;;;;;7.13;2.25;;;-1.70;99.90;;;;;;5087942;28;20063;-50
2021/01/25 01:30:51;;;;;;;5.30;1.42;;;-1.70;99.90;;;;;;5078733;28;20063;-49
2021/01/25 01:33:18;;;;;;;5.97;1.92;;;-1.70;99.90;;;;;;5087970;28;20047;-50
2021/01/25 01:35:44;;;;;;;3.85;1.88;;;-1.80;99.90;;;;;;5089812;28;20727;-50
2021/01/25 01:38:11;;;;;;;4.25;1.98;;;-1.80;99.90;;;;;;5090102;28;20060;-49
2021/01/25 01:40:37;;;;;;;6.22;1.48;;;-1.80;99.90;;;;;;5082410;28;20048;-49
2021/01/25 01:43:04;;;;;;;1.80;1.27;;;-1.80;99.90;;;;;;5084719;28;20067;-50
2021/01/25 01:45:30;;;;;;;4.65;1.33;;;-1.80;99.90;;;;;;5086854;28;20044;-50
2021/01/25 01:47:57;;;;;;;4.45;1.58;;;-1.80;99.90;;;;;;5091775;28;20040;-49
2021/01/25 01:50:24;;;;;;;3.42;1.20;;;-1.80;99.90;;;;;;5085422;28;20052;-49
2021/01/25 01:52:51;;;;;;;2.08;1.00;;;-1.80;99.90;;;;;;5088949;28;20044;-51
2021/01/25 01:55:19;;;;;;;3.05;1.00;;;-1.70;99.90;;;;;;5090885;28;20372;-50
2021/01/25 01:57:53;;;;;;;4.25;1.40;;;-1.70;99.90;;;;;;5086958;28;20056;-51
2021/01/25 02:00:21;;;;;;;4.28;1.20;;;-1.70;99.90;;;;;;5078415;28;20051;-51
2021/01/25 02:02:47;;;;;;;2.90;1.10;;;-1.70;99.90;;;;;;5083334;28;20051;-50
2021/01/25 02:05:15;;;;;;;4.38;1.00;;;-1.60;99.90;;;;;;5076503;28;20110;-49
2021/01/25 02:07:46;;;;;;;2.80;1.08;;;-1.60;99.90;;;;;;5086405;28;20380;-49
2021/01/25 02:10:13;;;;;;;5.47;1.77;;;-1.50;99.90;;;;;;5088738;28;20058;-49
2021/01/25 02:12:42;;;;;;;2.08;1.27;;;-1.50;99.90;;;;;;5079617;28;20048;-50
2021/01/25 02:15:13;;;;;;;4.82;1.52;;;-1.30;99.90;;;;;;5078973;28;20136;-49
2021/01/25 02:17:40;;;;;;;6.35;2.45;;;-1.30;99.90;;;;;;5085194;28;20055;-49
2021/01/25 02:20:11;;;;;;;5.60;1.83;;;-1.30;99.90;;;;;;5063599;28;20055;-50
2021/01/25 02:22:42;;;;;;;2.92;2.38;;;-1.40;99.90;;;;;;5072022;28;20063;-49
2021/01/25 02:25:28;;;;;;;3.83;1.83;;;-1.40;99.90;;;;;;5089072;28;20048;-49
2021/01/25 02:27:55;;;;;;;6.13;1.60;;;-1.40;99.90;;;;;;5086224;28;20510;-50
2021/01/25 02:30:22;;;;;;;2.47;1.40;;;-1.40;99.90;;;;;;5086467;28;20045;-50
2021/01/25 02:32:52;;;;;;;3.25;1.77;;;-1.40;99.90;;;;;;5083234;28;20754;-49
2021/01/25 02:35:20;;;;;;;2.85;1.27;;;-1.40;99.90;;;;;;5091034;28;20050;-51
2021/01/25 02:37:52;;;;;;;3.25;1.55;;;-1.30;99.90;;;;;;5086369;28;20059;-50
2021/01/25 02:40:21;;;;;;;2.88;1.10;;;-1.30;99.90;;;;;;5086948;28;20044;-49
2021/01/25 02:42:50;;;;;;;3.75;1.90;;;-1.30;99.90;;;;;;5079498;28;20063;-52
2021/01/25 02:45:17;;;;;;;5.50;1.45;;;-1.30;99.90;;;;;;5077641;28;20078;-49
2021/01/25 02:47:45;;;;;;;5.22;1.50;;;-1.30;99.90;;;;;;5091170;28;20051;-50
2021/01/25 02:50:12;;;;;;;5.05;2.03;;;-1.30;99.90;;;;;;5085378;28;20445;-50
2021/01/25 02:52:39;;;;;;;2.38;1.20;;;-1.20;99.90;;;;;;5086164;28;20091;-50
2021/01/25 02:55:06;;;;;;;7.95;1.83;;;-1.20;99.90;;;;;;5086344;28;20044;-49
2021/01/25 02:57:36;;;;;;;5.20;0.85;;;-1.20;99.90;;;;;;5075246;28;20060;-49
2021/01/25 03:00:06;;;;;;;1.65;0.90;;;-1.20;99.90;;;;;;5090361;28;20488;-51
2021/01/25 03:02:33;;;;;;;1.58;0.63;;;-1.10;99.90;;;;;;5084356;28;20056;-49
2021/01/25 03:05:01;;;;;;;1.25;0.70;;;-0.90;99.90;;;;;;5077904;28;20056;-49
2021/01/25 03:07:27;;;;;;;1.00;0.68;;;-0.70;99.90;;;;;;5085605;28;20384;-49
2021/01/25 03:09:59;;;;;;;4.10;0.88;;;-0.70;99.90;;;;;;5073494;28;20059;-50
2021/01/25 03:12:26;;;;;;;4.50;1.23;;;-0.70;99.90;;;;;;5086363;28;20044;-50
2021/01/25 03:14:53;;;;;;;3.35;1.10;;;-0.70;99.90;;;;;;5087875;28;20379;-49
2021/01/25 03:17:20;;;;;;;0.80;0.50;;;-0.70;99.90;;;;;;5088790;28;20403;-49
2021/01/25 03:19:46;;;;;;;1.00;0.40;;;-0.40;99.90;;;;;;5079358;28;20127;-50
2021/01/25 03:22:13;;;;;;;0.60;0.43;;;-0.20;99.90;;;;;;5079331;28;20408;-50
2021/01/25 03:24:40;;;;;;;0.88;0.60;;;-0.10;99.90;;;;;;5080773;28;20044;-50
2021/01/25 03:27:07;;;;;;;1.67;0.80;;;0.00;99.90;;;;;;5088882;28;20737;-49
2021/01/25 03:29:33;;;;;;;0.90;0.50;;;0.10;99.90;;;;;;5086102;28;20048;-50
2021/01/25 03:32:00;;;;;;;1.23;0.50;;;0.20;99.90;;;;;;5080884;28;20052;-52
2021/01/25 03:34:27;;;;;;;1.13;0.40;;;0.40;99.90;;;;;;5086518;28;20051;-51
2021/01/25 03:36:54;;;;;;;1.00;0.40;;;0.40;99.90;;;;;;5084784;28;20072;-50
2021/01/25 03:39:20;;;;;;;2.22;0.50;;;0.40;99.90;;;;;;5091417;28;20456;-49
2021/01/25 03:41:47;;;;;;;1.25;0.60;;;0.40;99.90;;;;;;5082650;28;20464;-50
2021/01/25 03:44:15;;;;;;;1.05;0.40;;;0.40;99.90;;;;;;5083403;28;20045;-51
2021/01/25 03:46:46;;;;;;;0.50;0.40;;;0.50;99.90;;;;;;5084752;28;20480;-50
2021/01/25 03:49:16;;;;;;;4.25;0.30;;;0.70;99.90;;;;;;5087494;28;20476;-50
2021/01/25 03:51:43;;;;;;;3.67;0.30;;;0.80;99.90;;;;;;5077033;28;20416;-50
2021/01/25 03:54:11;;;;;;;0.93;0.20;;;0.80;99.90;;;;;;5075522;28;20060;-53
2021/01/25 03:56:38;;;;;;;2.15;0.20;;;1.10;99.90;;;;;;5084808;28;20048;-51
2021/01/25 03:59:05;;;;;;;3.65;0.20;;;1.30;99.90;;;;;;5081810;28;20052;-51
2021/01/25 04:01:32;;;;;;;1.85;0.30;;;1.40;99.90;;;;;;5070684;28;20483;-51
2021/01/25 04:04:00;;;;;;;2.22;0.40;;;1.30;99.90;;;;;;5087138;28;20075;-51
2021/01/25 04:06:26;;;;;;;1.85;0.32;;;1.30;99.90;;;;;;5086489;28;20052;-51
2021/01/25 04:08:53;;;;;;;2.42;0.30;;;1.20;99.90;;;;;;5087757;28;20409;-50
2021/01/25 04:11:19;;;;;;;0.43;0.30;;;1.30;99.90;;;;;;5077309;28;20048;-50
2021/01/25 04:13:46;;;;;;;1.83;0.25;;;1.30;99.90;;;;;;5074998;28;20412;-50
2021/01/25 04:16:12;;;;;;;2.15;0.30;;;1.20;99.90;;;;;;5079727;28;20044;-51
2021/01/25 04:18:39;;;;;;;3.13;0.30;;;1.10;99.90;;;;;;5080476;28;20044;-50
2021/01/25 04:21:05;;;;;;;4.55;0.40;;;1.20;99.90;;;;;;5085898;28;20126;-50
2021/01/25 04:23:32;;;;;;;1.48;0.32;;;1.30;99.90;;;;;;5078414;28;20048;-50
2021/01/25 04:25:58;;;;;;;2.83;0.25;;;1.40;99.90;;;;;;5088926;28;20052;-51
2021/01/25 04:28:25;;;;;;;0.90;0.40;;;1.50;99.90;;;;;;5084626;28;20479;-50
2021/01/25 04:30:51;;;;;;;1.85;0.30;;;1.50;99.90;;;;;;5089840;28;20047;-51
2021/01/25 04:33:18;;;;;;;1.02;0.22;;;1.50;99.90;;;;;;5079727;28;20048;-50
2021/01/25 04:35:44;;;;;;;0.82;0.40;;;1.60;99.90;;;;;;5088989;28;20048;-50
2021/01/25 04:38:11;;;;;;;3.42;0.20;;;1.70;99.90;;;;;;5085788;28;20052;-50
2021/01/25 04:40:38;;;;;;;1.95;0.20;;;1.80;99.90;;;;;;5083501;28;20495;-50
2021/01/25 04:43:04;;;;;;;2.25;0.30;;;1.80;99.90;;;;;;5079736;28;20059;-51
2021/01/25 04:45:31;;;;;;;0.65;0.30;;;1.80;99.90;;;;;;5077781;28;20051;-52
2021/01/25 04:48:00;;;;;;;3.33;1.15;;;1.80;99.90;;;;;;5078097;28;20076;-50
2021/01/25 04:50:28;;;;;;;1.98;0.30;;;1.80;99.90;;;;;;5079552;28;20502;-50
2021/01/25 04:52:56;;;;;;;1.67;0.30;;;1.70;99.90;;;;;;5089070;28;20048;-50
2021/01/25 04:55:22;;;;;;;5.60;0.20;;;1.70;99.90;;;;;;5083675;28;20052;-51
2021/01/25 04:57:52;;;;;;;0.98;0.20;;;1.80;99.90;;;;;;5087025;28;20051;-51
2021/01/25 05:00:19;;;;;;;1.65;0.17;;;1.90;99.90;;;;;;5086635;28;20055;-50
2021/01/25 05:02:46;;;;;;;0.40;0.17;;;1.90;99.90;;;;;;5075417;28;20052;-51
2021/01/25 05:05:13;;;;;;;0.40;0.20;;;1.90;99.90;;;;;;5075429;28;20110;-51
2021/01/25 05:07:40;;;;;;;2.28;0.45;;;1.90;99.90;;;;;;5078257;28;20059;-51
2021/01/25 05:10:08;;;;;;;2.63;0.28;;;1.80;99.90;;;;;;5088438;28;20055;-51
2021/01/25 05:12:43;;;;;;;0.28;0.20;;;1.80;99.90;;;;;;5082059;28;20044;-52
2021/01/25 05:15:11;;;;;;;0.40;0.20;;;1.80;99.90;;;;;;5090134;28;20040;-51
2021/01/25 05:17:38;;;;;;;1.88;0.20;;;1.90;99.90;;;;;;5087903;28;20055;-50
2021/01/25 05:20:08;;;;;;;0.20;0.20;;;2.00;99.90;;;;;;5088671;28;20130;-51
2021/01/25 05:22:38;;;;;;;1.50;0.20;;;1.90;99.90;;;;;;5077462;28;20055;-50
2021/01/25 05:25:07;;;;;;;0.20;0.20;;;1.90;99.90;;;;;;5085833;28;20055;-51
2021/01/25 05:27:34;;;;;;;0.70;0.20;;;1.90;99.90;;;;;;5086304;28;20060;-51
2021/01/25 05:30:11;;;;;;;0.47;0.10;;;1.80;99.90;;;;;;5088611;28;20048;-52
2021/01/25 05:32:50;;;;;;;0.28;0.10;;;1.80;99.90;;;;;;5080901;28;20051;-51
2021/01/25 05:35:19;;;;;;;0.60;0.15;;;1.70;99.90;;;;;;5093151;28;20479;-51
2021/01/25 05:38:12;;;;;;;1.10;0.05;;;1.60;99.90;;;;;;5086376;28;20388;-51
2021/01/25 05:40:39;;;;;;;0.17;0.10;;;1.60;99.90;;;;;;5073553;28;20056;-51
2021/01/25 05:43:16;;;;;;;1.58;0.20;;;1.50;99.90;;;;;;5086743;28;20047;-50
2021/01/25 05:45:43;;;;;;;0.88;0.28;;;1.40;99.90;;;;;;5085814;28;20815;-50
2021/01/25 05:48:14;;;;;;;1.05;0.30;;;1.40;99.90;;;;;;5076673;28;20055;-51
2021/01/25 05:50:42;;;;;;;0.30;0.17;;;1.40;99.90;;;;;;5082378;28;20101;-53
2021/01/25 05:53:11;;;;;;;0.30;0.10;;;1.50;99.90;;;;;;5078578;28;20059;-51
2021/01/25 05:55:39;;;;;;;0.40;0.30;;;1.50;99.90;;;;;;5085880;28;20055;-52
2021/01/25 05:58:06;;;;;;;0.13;0.10;;;1.50;99.90;;;;;;5088855;28;20059;-50
2021/01/25 06:00:33;;;;;;;0.05;0.05;;;1.50;99.90;;;;;;5088694;28;20051;-50
2021/01/25 06:03:01;;;;;;;0.17;0.10;;;1.60;99.90;;;;;;5081160;28;20048;-50
2021/01/25 06:05:32;;;;;;;0.77;0.10;;;1.60;99.90;;;;;;5079088;28;20052;-50
2021/01/25 06:08:23;;;;;;;1.05;0.43;;;1.60;99.90;;;;;;5081459;28;20044;-52
2021/01/25 06:11:06;;;;;;;0.50;0.30;;;1.50;99.90;;;;;;5076908;28;20036;-50
2021/01/25 06:13:47;;;;;;;0.00;0.00;;;1.50;99.90;;;;;;5091435;28;20051;-51
2021/01/25 06:16:15;;;;;;;0.00;0.00;;;1.60;99.90;;;;;;5085472;28;20040;-52
2021/01/25 06:18:45;;;;;;;0.43;0.30;;;1.70;99.90;;;;;;5091513;28;20083;-51
2021/01/25 06:21:15;;;;;;;0.35;0.10;;;1.60;99.90;;;;;;5084215;28;20047;-51
2021/01/25 06:23:43;;;;;;;0.15;0.10;;;1.60;99.90;;;;;;5073419;28;20060;-51
2021/01/25 06:26:10;;;;;;;0.10;0.10;;;1.60;99.90;;;;;;5086935;28;20040;-50
2021/01/25 06:28:36;;;;;;;0.38;0.10;;;1.60;99.90;;;;;;5076758;28;20048;-51
2021/01/25 06:31:04;;;;;;;0.30;0.10;;;1.60;99.90;;;;;;5080424;28;20048;-50
2021/01/25 06:33:38;;;;;;;0.10;0.10;;;1.60;99.90;;;;;;5080174;28;20055;-50
2021/01/25 06:36:08;;;;;;;0.93;0.10;;;1.60;99.90;;;;;;5072915;28;20048;-50
2021/01/25 06:38:36;;;;;;;1.00;0.00;;;1.60;99.90;;;;;;5085663;28;20048;-50
2021/01/25 06:41:13;;;;;;;0.20;0.00;;;1.60;99.90;;;;;;5084873;28;20063;-54
2021/01/25 06:43:45;;;;;;;0.20;0.10;;;1.60;99.90;;;;;;5079660;28;20059;-51
2021/01/25 06:46:21;;;;;;;0.10;0.00;;;1.60;99.90;;;;;;5078737;28;20053;-51
2021/01/25 06:48:50;;;;;;;0.00;0.00;;;1.60;99.90;;;;;;5091114;28;20494;-50
2021/01/25 06:51:21;;;;;;;0.00;0.00;;;1.60;99.90;;;;;;5085893;28;20471;-50
2021/01/25 06:53:49;;;;;;;0.20;0.10;;;1.70;99.90;;;;;;5077894;28;20037;-50
2021/01/25 06:56:16;;;;;;;0.63;0.00;;;1.70;99.90;;;;;;5087156;28;20047;-50
2021/01/25 06:58:51;;;;;;;0.10;0.00;;;1.70;99.90;;;;;;5087341;28;20064;-51
2021/01/25 07:01:22;;;;;;;0.17;0.00;;;1.70;99.90;;;;;;5090502;28;20058;-51
2021/01/25 07:03:56;;;;;;;0.20;0.05;;;1.70;99.90;;;;;;5084357;28;20062;-53
2021/01/25 07:06:35;;;;;;;0.20;0.10;;;1.70;99.90;;;;;;5079372;28;20531;-50
2021/01/25 07:09:04;;;;;;;0.10;0.10;;;1.70;99.90;;;;;;5088686;28;20043;-50
2021/01/25 07:11:32;;;;;;;0.20;0.13;;;1.70;99.90;;;;;;5088043;28;20056;-50
2021/01/25 07:13:59;;;;;;;0.10;0.10;;;1.80;99.90;;;;;;5088678;28;20040;-50
2021/01/25 07:16:27;;;;;;;0.20;0.10;;;1.80;99.90;;;;;;5082561;28;20055;-51
2021/01/25 07:18:54;;;;;;;12.57;2.30;;;1.80;99.90;;;;;;5074637;28;20055;-51
2021/01/25 07:21:22;;;;;;;5.50;1.10;;;1.80;99.90;;;;;;5085443;28;20503;-50
2021/01/25 07:23:50;;;;;;;2.90;0.93;;;1.80;99.90;;;;;;5090489;28;20426;-50
2021/01/25 07:26:18;;;;;;;0.60;0.40;;;1.90;99.90;;;;;;5087982;28;20048;-51
2021/01/25 07:28:46;;;;;;;1.67;0.20;;;1.90;99.90;;;;;;5082024;28;20040;-52
2021/01/25 07:31:14;;;;;;;4.30;1.00;;;2.00;99.90;;;;;;5090048;28;20044;-51
2021/01/25 07:33:41;;;;;;;0.15;0.10;;;2.10;99.90;;;;;;5083974;28;20044;-51
2021/01/25 07:36:08;;;;;;;0.80;0.30;;;2.10;99.90;;;;;;5090872;28;20094;-50
2021/01/25 07:38:35;;;;;;;0.10;0.10;;;2.20;99.90;;;;;;5084650;28;20059;-50
2021/01/25 07:41:01;;;;;;;0.82;0.40;;;2.10;99.90;;;;;;5083625;28;20048;-50
2021/01/25 07:43:30;;;;;;;2.80;0.50;;;2.10;99.90;;;;;;5082922;28;20400;-50
2021/01/25 07:46:04;;;;;;;2.13;0.20;;;2.10;99.90;;;;;;5074459;28;20044;-51
2021/01/25 07:48:31;;;;;;;0.30;0.20;;;2.10;99.90;;;;;;5090062;28;20040;-51
2021/01/25 07:50:58;;;;;;;0.93;0.20;;;2.00;99.90;;;;;;5083238;28;20490;-51
2021/01/25 07:53:33;;;;;;;0.30;0.20;;;2.00;99.90;;;;;;5091349;28;20122;-51
2021/01/25 07:55:59;;;;;;;0.52;0.30;;;2.00;99.90;;;;;;5084257;28;20055;-50
2021/01/25 07:58:26;;;;;;;0.20;0.20;;;2.10;99.90;;;;;;5071336;28;20048;-51
2021/01/25 08:00:52;;;;;;;0.90;0.10;;;2.10;99.90;;;;;;5086883;28;20060;-51
2021/01/25 08:03:24;;;;;;;0.30;0.20;;;2.10;99.90;;;;;;5086574;28;20488;-52
2021/01/25 08:05:54;;;;;;;0.20;0.20;;;2.20;99.90;;;;;;5089277;28;20489;-50
2021/01/25 08:08:22;;;;;;;0.20;0.20;;;2.20;99.90;;;;;;5083177;28;20036;-52
2021/01/25 08:10:49;;;;;;;0.20;0.20;;;2.20;99.90;;;;;;5070903;28;20052;-54
2021/01/25 08:13:16;;;;;;;0.45;0.30;;;2.20;99.90;;;;;;5085732;28;20435;-50
2021/01/25 08:15:58;;;;;;;1.33;0.40;;;2.30;99.90;;;;;;5087918;28;20461;-50
2021/01/25 08:18:34;;;;;;;2.97;0.90;;;2.40;99.90;;;;;;5090005;28;20052;-50
2021/01/25 08:21:03;;;;;;;0.90;0.70;;;2.40;99.90;;;;;;5083982;28;20135;-52
2021/01/25 08:23:36;;;;;;;0.25;0.10;;;2.60;99.90;;;;;;5090872;28;20059;-51
2021/01/25 08:26:03;;;;;;;0.20;0.20;;;2.70;99.90;;;;;;5084462;28;20063;-51
2021/01/25 08:28:34;;;;;;;0.70;0.40;;;2.70;99.90;;;;;;5085039;28;20374;-50
2021/01/25 08:31:14;;;;;;;3.50;0.40;;;2.80;99.90;;;;;;5087795;28;20044;-50
2021/01/25 08:33:56;;;;;;;0.60;0.30;;;2.70;99.90;;;;;;5078236;28;20400;-50
2021/01/25 08:36:32;;;;;;;1.30;0.20;;;2.70;99.90;;;;;;5072543;28;20582;-52
2021/01/25 08:39:17;;;;;;;0.50;0.30;;;2.70;99.90;;;;;;5081609;28;20056;-51
2021/01/25 08:41:50;;;;;;;0.20;0.08;;;2.80;99.90;;;;;;5083148;28;20056;-54
2021/01/25 08:44:20;;;;;;;0.60;0.40;;;2.80;99.90;;;;;;5084285;28;20055;-50
2021/01/25 08:46:47;;;;;;;0.35;0.20;;;2.80;99.90;;;;;;5079145;28;20057;-50
2021/01/25 08:49:34;;;;;;;0.45;0.30;;;2.80;99.90;;;;;;5091086;28;20052;-50
2021/01/25 08:52:09;;;;;;;3.13;0.30;;;2.80;99.90;;;;;;5089636;28;20047;-51
2021/01/25 08:54:39;;;;;;;0.43;0.40;;;2.80;99.90;;;;;;5088254;28;20043;-50
2021/01/25 08:57:32;;;;;;;0.50;0.40;;;2.90;99.90;;;;;;5080808;28;20045;-50
2021/01/25 09:00:16;;;;;;;1.93;0.40;;;2.90;99.90;;;;;;5082998;28;20048;-51
2021/01/25 09:02:44;;;;;;;1.15;0.20;;;2.90;99.90;;;;;;5076238;28;20055;-50
2021/01/25 09:05:13;;;;;;;4.55;0.20;;;3.00;99.90;;;;;;5085249;28;20036;-53
2021/01/25 09:07:40;;;;;;;0.40;0.20;;;3.20;99.90;;;;;;5077400;28;20048;-51
2021/01/25 09:10:08;;;;;;;3.80;0.30;;;3.20;99.90;;;;;;5086965;28;20687;-50
2021/01/25 09:12:36;;;;;;;0.50;0.10;;;3.20;99.90;;;;;;5079460;28;20051;-53
2021/01/25 09:15:07;;;;;;;0.10;0.00;;;3.20;99.90;;;;;;5093632;28;20083;-52
2021/01/25 09:17:35;;;;;;;0.65;0.00;;;3.20;99.90;;;;;;5087648;28;20048;-52
2021/01/25 09:20:04;;;;;;;3.30;0.55;;;3.30;99.90;;;;;;5091367;28;20098;-50
2021/01/25 09:22:30;;;;;;;0.88;0.20;;;3.30;99.90;;;;;;5083063;28;20052;-50
2021/01/25 09:24:57;;;;;;;1.65;0.20;;;3.30;99.90;;;;;;5078387;28;20044;-50
2021/01/25 09:27:24;;;;;;;1.27;0.10;;;3.30;99.90;;;;;;5078467;28;20064;-50
2021/01/25 09:29:51;;;;;;;1.20;0.70;;;3.40;99.90;;;;;;5083875;28;20044;-50
2021/01/25 09:32:18;;;;;;;0.40;0.30;;;3.50;99.90;;;;;;5076346;28;20135;-50
2021/01/25 09:34:45;;;;;;;3.42;1.35;;;3.50;99.90;;;;;;5085779;28;20075;-50
2021/01/25 09:37:12;;;;;;;8.23;1.92;;;3.60;99.90;;;;;;5073373;28;20060;-53
2021/01/25 09:39:39;;;;;;;1.65;0.45;;;3.70;99.90;;;;;;5085451;28;20560;-51
2021/01/25 09:42:06;;;;;;;3.97;0.60;;;3.60;99.90;;;;;;5080024;28;20044;-51
2021/01/25 09:44:35;;;;;;;2.42;0.90;;;3.60;99.90;;;;;;5089714;28;20063;-51
2021/01/25 09:47:02;;;;;;;2.72;0.50;;;3.70;99.90;;;;;;5082228;28;20040;-54
2021/01/25 09:49:29;;;;;;;1.42;1.00;;;3.70;99.90;;;;;;5093430;28;20370;-50
2021/01/25 09:51:55;;;;;;;1.02;0.60;;;3.80;99.90;;;;;;5087454;28;20483;-51
2021/01/25 09:54:22;;;;;;;0.60;0.30;;;3.90;99.90;;;;;;5090893;28;20056;-51
2021/01/25 09:56:49;;;;;;;3.10;0.40;;;4.10;99.90;;;;;;5072376;28;20384;-50
2021/01/25 09:59:17;;;;;;;0.25;0.10;;;4.20;99.90;;;;;;5078002;28;20098;-50
2021/01/25 10:01:44;;;;;;;3.40;0.20;;;4.30;99.90;;;;;;5092220;28;20048;-50
2021/01/25 10:04:10;;;;;;;0.20;0.10;;;4.30;99.90;;;;;;5086416;28;20044;-50
2021/01/25 10:06:37;;;;;;;0.40;0.10;;;4.40;99.90;;;;;;5092748;28;20221;-50
2021/01/25 10:09:04;;;;;;;1.40;0.10;;;4.40;99.90;;;;;;5067475;28;20051;-53
2021/01/25 10:11:32;;;;;;;0.80;0.10;;;4.50;99.90;;;;;;5088676;28;20047;-50
2021/01/25 10:13:59;;;;;;;4.07;0.77;;;4.60;99.90;;;;;;5089946;28;20048;-50
2021/01/25 10:16:26;;;;;;;2.67;0.68;;;4.60;99.90;;;;;;5087813;28;20044;-51
2021/01/25 10:18:53;;;;;;;0.30;0.10;;;4.60;99.90;;;;;;5080314;28;20059;-50
2021/01/25 10:21:20;;;;;;;0.93;0.40;;;4.80;99.90;;;;;;5079162;28;20380;-50
2021/01/25 10:23:47;;;;;;;0.45;0.20;;;4.90;99.90;;;;;;5084273;28;20055;-51
2021/01/25 10:26:17;;;;;;;0.30;0.10;;;4.90;99.90;;;;;;5084068;28;20147;-50
2021/01/25 10:28:44;;;;;;;0.55;0.00;;;4.90;99.90;;;;;;5089952;28;20040;-51
2021/01/25 10:31:10;;;;;;;3.05;0.20;;;5.00;99.90;;;;;;5089189;28;20368;-50
2021/01/25 10:33:37;;;;;;;6.50;0.93;;;5.10;99.90;;;;;;5087370;28;20105;-51
2021/01/25 10:36:04;;;;;;;7.07;0.60;;;5.10;99.90;;;;;;5085920;28;20098;-51
2021/01/25 10:38:31;;;;;;;0.77;0.43;;;5.10;99.90;;;;;;5080120;28;20067;-51
2021/01/25 10:40:58;;;;;;;2.95;1.10;;;5.10;99.90;;;;;;5075618;28;20695;-50
2021/01/25 10:43:25;;;;;;;2.17;0.40;;;5.10;99.90;;;;;;5079346;28;20139;-50
2021/01/25 10:45:52;;;;;;;2.88;0.50;;;5.20;99.90;;;;;;5084693;28;20056;-50
2021/01/25 10:48:19;;;;;;;1.30;0.30;;;5.30;99.90;;;;;;5080459;28;20052;-50
2021/01/25 10:50:45;;;;;;;4.72;0.20;;;5.40;99.90;;;;;;5085565;28;20044;-51
2021/01/25 10:53:12;;;;;;;4.05;0.20;;;5.50;99.90;;;;;;5088828;28;20054;-51
2021/01/25 10:55:38;;;;;;;6.00;0.10;;;5.60;99.90;;;;;;5077598;28;20407;-50
2021/01/25 10:58:05;;;;;;;3.70;0.25;;;5.60;99.90;;;;;;5082170;28;20086;-51
2021/01/25 11:00:31;;;;;;;3.78;0.47;;;5.70;99.90;;;;;;5080773;28;20048;-51
2021/01/25 11:02:58;;;;;;;2.40;0.40;;;5.70;99.90;;;;;;5092195;28;20118;-51
2021/01/25 11:05:27;;;;;;;3.70;0.70;;;5.70;99.90;;;;;;5083678;28;20044;-51
2021/01/25 11:07:54;;;;;;;3.60;0.47;;;6.00;99.90;;;;;;5086237;28;20057;-51
2021/01/25 11:10:25;;;;;;;1.88;0.60;;;6.20;99.90;;;;;;5079764;28;20045;-51
2021/01/25 11:12:53;;;;;;;5.85;1.30;;;6.30;99.90;;;;;;5079120;28;20495;-51
2021/01/25 11:15:21;;;;;;;5.00;1.10;;;6.30;99.90;;;;;;5088949;28;20044;-50
2021/01/25 11:17:47;;;;;;;9.05;0.60;;;6.20;99.90;;;;;;5080929;28;20048;-51
2021/01/25 11:20:15;;;;;;;2.85;0.30;;;6.30;99.90;;;;;;5094962;28;20093;-51
2021/01/25 11:22:42;;;;;;;1.02;0.10;;;6.30;99.90;;;;;;5082546;28;20051;-53
2021/01/25 11:25:09;;;;;;;1.00;0.20;;;6.10;99.90;;;;;;5078054;28;20465;-50
2021/01/25 11:27:37;;;;;;;3.45;0.30;;;5.90;99.90;;;;;;5082931;28;20054;-51
2021/01/25 11:30:06;;;;;;;0.93;0.20;;;5.80;99.90;;;;;;5079385;28;20050;-51
2021/01/25 11:32:33;;;;;;;1.30;0.30;;;5.80;99.90;;;;;;5089833;28;20047;-51
2021/01/25 11:34:59;;;;;;;2.75;0.40;;;6.00;99.90;;;;;;5079290;28;20510;-50
2021/01/25 11:37:26;;;;;;;6.65;1.10;;;6.10;99.90;;;;;;5077090;28;20052;-51
2021/01/25 11:39:53;;;;;;;1.88;0.60;;;6.10;99.90;;;;;;5081885;28;20047;-50
2021/01/25 11:42:20;;;;;;;3.22;0.32;;;6.10;99.90;;;;;;5090318;28;20040;-50
2021/01/25 11:44:46;;;;;;;2.45;0.25;;;6.20;99.90;;;;;;5079282;28;20052;-52
2021/01/25 11:47:12;;;;;;;2.50;0.20;;;6.30;99.90;;;;;;5080351;28;20044;-50
2021/01/25 11:49:39;;;;;;;2.38;0.20;;;6.30;99.90;;;;;;5089172;28;20446;-50
2021/01/25 11:52:06;;;;;;;1.17;0.10;;;6.30;99.90;;;;;;5092636;28;20048;-51
2021/01/25 11:54:33;;;;;;;1.40;0.30;;;6.10;99.90;;;;;;5084933;28;20051;-50
2021/01/25 11:57:00;;;;;;;0.28;0.10;;;5.90;99.90;;;;;;5081733;28;20047;-50
2021/01/25 11:59:26;;;;;;;0.68;0.10;;;5.70;99.90;;;;;;5083724;28;20044;-50
2021/01/25 12:01:53;;;;;;;0.60;0.10;;;5.60;99.90;;;;;;5081451;28;20051;-51
2021/01/25 12:04:20;;;;;;;2.20;0.20;;;5.50;99.90;;;;;;5089416;28;20056;-51
2021/01/25 12:06:53;;;;;;;2.33;0.57;;;5.40;99.90;;;;;;5083959;28;20051;-53
2021/01/25 12:09:21;;;;;;;;;;;5.20;99.90;;;;;;5083383;28;20060;-53
2021/01/25 12:11:47;;;;;;;0.30;0.20;;;5.10;99.90;;;;;;5082778;28;19920;-51
2021/01/25 12:14:14;;;;;;;0.38;0.20;;;5.00;99.90;;;;;;5076037;28;20063;-51
2021/01/25 12:16:40;;;;;;;0.60;0.20;;;4.90;99.90;;;;;;5089562;28;20067;-50
2021/01/25 12:19:07;;;;;;;2.70;0.50;;;4.90;99.90;;;;;;5084307;28;20048;-50
2021/01/25 12:21:34;;;;;;;1.95;0.50;;;5.00;99.90;;;;;;5098925;28;20696;-51
2021/01/25 12:24:03;;;;;;;2.50;0.30;;;5.00;99.90;;;;;;5088083;28;20404;-50
2021/01/25 12:26:30;;;;;;;3.17;0.60;;;5.00;99.90;;;;;;5074784;28;20053;-50
2021/01/25 12:28:57;;;;;;;1.20;0.50;;;5.00;99.90;;;;;;5092764;28;20040;-50
2021/01/25 12:31:25;;;;;;;1.92;0.95;;;5.10;99.90;;;;;;5086988;28;20405;-50
2021/01/25 12:33:52;;;;;;;0.90;0.63;;;5.10;99.90;;;;;;5092286;28;20040;-50
2021/01/25 12:36:18;;;;;;;0.98;0.30;;;5.20;99.90;;;;;;5083518;28;20051;-51
2021/01/25 12:38:45;;;;;;;1.95;0.20;;;5.10;99.90;;;;;;5076983;28;20404;-50
2021/01/25 12:41:11;;;;;;;0.57;0.30;;;5.10;99.90;;;;;;5086835;28;20047;-51
2021/01/25 12:43:38;;;;;;;0.88;0.70;;;5.10;99.90;;;;;;5079412;28;20059;-53
2021/01/25 12:46:04;;;;;;;6.63;1.55;;;5.20;99.90;;;;;;5088589;28;20063;-51
2021/01/25 12:48:31;;;;;;;8.02;1.90;;;5.20;99.90;;;;;;5087467;28;20052;-53
2021/01/25 12:50:57;;;;;;;11.88;2.83;;;5.20;99.90;;;;;;5079983;28;20044;-50
2021/01/25 12:53:24;;;;;;;7.57;3.42;;;5.20;99.90;;;;;;5081740;28;20488;-50
2021/01/25 12:55:50;;;;;;;10.45;4.50;;;5.20;99.90;;;;;;5094628;28;20446;-51
2021/01/25 12:58:17;;;;;;;6.40;2.30;;;5.30;99.90;;;;;;5085471;28;20503;-51
2021/01/25 13:00:43;;;;;;;1.73;0.50;;;5.30;99.90;;;;;;5074227;28;20056;-50